sensor_id;sensor_type;location;lat;lon;timestamp;temperature;humidity
16879;DHT22;8556;52.218;9.884;2023-02-28T00:02:26;0.60;99.90
16879;DHT22;8556;52.218;9.884;2023-02-28T00:04:53;0.70;99.90
16879;DHT22;8556;52.218;9.884;2023-02-28T00:07:27;0.70;99.90
16879;DHT22;8556;52.218;9.884;2023-02-28T00:09:54;0.70;99.90
16879;DHT22;8556;52.218;9.884;2023-02-28T00:12:21;0.70;99.90
16879;DHT22;8556;52.218;9.884;2023-02-28T00:14:48;0.70;99.90
16879;DHT22;8556;52.218;9.884;2023-02-28T00:17:15;0.70;99.90
16879;DHT22;8556;52.218;9.884;2023-02-28T00:19:43;0.60;99.90
16879;DHT22;8556;52.218;9.884;2023-02-28T00:22:10;0.70;99.90
16879;DHT22;8556;52.218;9.884;2023-02-28T00:24:38;0.70;99.90
16879;DHT22;8556;52.218;9.884;2023-02-28T00:27:05;0.60;99.90
16879;DHT22;8556;52.218;9.884;2023-02-28T00:29:32;0.50;99.90
16879;DHT22;8556;52.218;9.884;2023-02-28T00:31:58;0.40;99.90
16879;DHT22;8556;52.218;9.884;2023-02-28T00:34:25;0.30;99.90
16879;DHT22;8556;52.218;9.884;2023-02-28T00:36:52;0.10;99.90
16879;DHT22;8556;52.218;9.884;2023-02-28T00:39:19;0.10;99.90
16879;DHT22;8556;52.218;9.884;2023-02-28T00:41:47;0.10;99.90
16879;DHT22;8556;52.218;9.884;2023-02-28T00:44:14;0.00;99.90
16879;DHT22;8556;52.218;9.884;2023-02-28T00:46:41;-0.10;99.90
16879;DHT22;8556;52.218;9.884;2023-02-28T00:49:07;-0.20;99.90
16879;DHT22;8556;52.218;9.884;2023-02-28T00:51:34;-0.30;99.90
16879;DHT22;8556;52.218;9.884;2023-02-28T00:54:01;-0.30;99.90
16879;DHT22;8556;52.218;9.884;2023-02-28T00:56:28;-0.30;99.90
16879;DHT22;8556;52.218;9.884;2023-02-28T00:58:56;-0.50;99.90
16879;DHT22;8556;52.218;9.884;2023-02-28T01:01:23;-0.60;99.90
16879;DHT22;8556;52.218;9.884;2023-02-28T01:03:50;-0.60;99.90
16879;DHT22;8556;52.218;9.884;2023-02-28T01:06:16;-0.80;99.90
16879;DHT22;8556;52.218;9.884;2023-02-28T01:08:43;-0.80;99.90
16879;DHT22;8556;52.218;9.884;2023-02-28T01:11:12;-0.90;99.90
16879;DHT22;8556;52.218;9.884;2023-02-28T01:13:41;-1.00;99.90
16879;DHT22;8556;52.218;9.884;2023-02-28T01:16:09;-1.00;99.90
16879;DHT22;8556;52.218;9.884;2023-02-28T01:18:36;-1.00;99.90
16879;DHT22;8556;52.218;9.884;2023-02-28T01:21:04;-0.90;99.90
16879;DHT22;8556;52.218;9.884;2023-02-28T01:23:31;-0.90;99.90
16879;DHT22;8556;52.218;9.884;2023-02-28T01:26:04;-1.00;99.90
16879;DHT22;8556;52.218;9.884;2023-02-28T01:28:30;-1.10;99.90
16879;DHT22;8556;52.218;9.884;2023-02-28T01:30:57;-1.10;99.90
16879;DHT22;8556;52.218;9.884;2023-02-28T01:33:25;-1.20;99.90
16879;DHT22;8556;52.218;9.884;2023-02-28T01:35:58;-1.20;99.90
16879;DHT22;8556;52.218;9.884;2023-02-28T01:38:25;-1.00;99.90
16879;DHT22;8556;52.218;9.884;2023-02-28T01:40:51;-1.00;99.90
16879;DHT22;8556;52.218;9.884;2023-02-28T01:43:21;-1.20;99.90
16879;DHT22;8556;52.218;9.884;2023-02-28T01:45:49;-1.30;99.90
16879;DHT22;8556;52.218;9.884;2023-02-28T01:48:16;-1.30;99.90
16879;DHT22;8556;52.218;9.884;2023-02-28T01:50:45;-1.20;99.90
16879;DHT22;8556;52.218;9.884;2023-02-28T01:53:17;-1.40;99.90
16879;DHT22;8556;52.218;9.884;2023-02-28T01:55:48;-1.30;99.90
16879;DHT22;8556;52.218;9.884;2023-02-28T01:58:16;-1.40;99.90
16879;DHT22;8556;52.218;9.884;2023-02-28T02:00:44;-1.50;99.90
16879;DHT22;8556;52.218;9.884;2023-02-28T02:03:13;-1.30;99.90
16879;DHT22;8556;52.218;9.884;2023-02-28T02:05:41;-1.40;99.90
16879;DHT22;8556;52.218;9.884;2023-02-28T02:08:17;-1.50;99.90
16879;DHT22;8556;52.218;9.884;2023-02-28T02:10:47;-1.60;99.90
16879;DHT22;8556;52.218;9.884;2023-02-28T02:13:43;-1.60;99.90
16879;DHT22;8556;52.218;9.884;2023-02-28T02:16:26;-1.50;99.90
16879;DHT22;8556;52.218;9.884;2023-02-28T02:18:58;-1.50;99.90
16879;DHT22;8556;52.218;9.884;2023-02-28T02:21:55;-1.70;99.90
16879;DHT22;8556;52.218;9.884;2023-02-28T02:24:43;-1.70;99.90
16879;DHT22;8556;52.218;9.884;2023-02-28T02:27:20;-1.80;99.90
16879;DHT22;8556;52.218;9.884;2023-02-28T02:36:19;-1.90;99.90
16879;DHT22;8556;52.218;9.884;2023-02-28T02:38:52;-2.00;99.90
16879;DHT22;8556;52.218;9.884;2023-02-28T02:41:24;-2.00;99.90
16879;DHT22;8556;52.218;9.884;2023-02-28T02:43:58;-1.90;99.90
16879;DHT22;8556;52.218;9.884;2023-02-28T02:46:31;-1.80;99.90
16879;DHT22;8556;52.218;9.884;2023-02-28T02:49:00;-1.80;99.90
16879;DHT22;8556;52.218;9.884;2023-02-28T02:51:32;-1.80;99.90
16879;DHT22;8556;52.218;9.884;2023-02-28T02:54:05;-1.90;99.90
16879;DHT22;8556;52.218;9.884;2023-02-28T02:56:33;-2.10;99.90
16879;DHT22;8556;52.218;9.884;2023-02-28T02:59:04;-2.10;99.90
16879;DHT22;8556;52.218;9.884;2023-02-28T03:01:34;-2.20;99.90
16879;DHT22;8556;52.218;9.884;2023-02-28T03:04:05;-2.30;99.90
16879;DHT22;8556;52.218;9.884;2023-02-28T03:06:34;-2.10;99.90
16879;DHT22;8556;52.218;9.884;2023-02-28T03:09:02;-1.90;99.90
16879;DHT22;8556;52.218;9.884;2023-02-28T03:11:30;-2.00;99.90
16879;DHT22;8556;52.218;9.884;2023-02-28T03:14:15;-1.90;99.90
16879;DHT22;8556;52.218;9.884;2023-02-28T03:17:13;-1.90;99.90
16879;DHT22;8556;52.218;9.884;2023-02-28T03:20:01;-1.90;99.90
16879;DHT22;8556;52.218;9.884;2023-02-28T03:22:54;-2.00;99.90
16879;DHT22;8556;52.218;9.884;2023-02-28T03:25:32;-1.80;99.90
16879;DHT22;8556;52.218;9.884;2023-02-28T03:28:04;-1.90;99.90
16879;DHT22;8556;52.218;9.884;2023-02-28T03:30:39;-2.10;99.90
16879;DHT22;8556;52.218;9.884;2023-02-28T03:33:10;-2.00;99.90
16879;DHT22;8556;52.218;9.884;2023-02-28T03:35:40;-2.00;99.90
16879;DHT22;8556;52.218;9.884;2023-02-28T03:38:13;-1.90;99.90
16879;DHT22;8556;52.218;9.884;2023-02-28T03:40:45;-2.10;99.90
16879;DHT22;8556;52.218;9.884;2023-02-28T03:43:18;-2.00;99.90
16879;DHT22;8556;52.218;9.884;2023-02-28T03:45:47;-2.10;99.90
16879;DHT22;8556;52.218;9.884;2023-02-28T03:48:19;-2.20;99.90
16879;DHT22;8556;52.218;9.884;2023-02-28T03:50:51;-2.20;99.90
16879;DHT22;8556;52.218;9.884;2023-02-28T03:53:25;-2.10;99.90
16879;DHT22;8556;52.218;9.884;2023-02-28T03:55:56;-2.10;99.90
16879;DHT22;8556;52.218;9.884;2023-02-28T03:58:30;-2.10;99.90
16879;DHT22;8556;52.218;9.884;2023-02-28T04:01:02;-2.10;99.90
16879;DHT22;8556;52.218;9.884;2023-02-28T04:03:34;-2.10;99.90
16879;DHT22;8556;52.218;9.884;2023-02-28T04:06:02;-2.20;99.90
16879;DHT22;8556;52.218;9.884;2023-02-28T04:08:30;-2.60;99.90
16879;DHT22;8556;52.218;9.884;2023-02-28T04:11:01;-2.60;99.90
16879;DHT22;8556;52.218;9.884;2023-02-28T04:13:30;-2.40;99.90
16879;DHT22;8556;52.218;9.884;2023-02-28T04:15:57;-2.40;99.90
16879;DHT22;8556;52.218;9.884;2023-02-28T04:18:24;-2.50;99.90
16879;DHT22;8556;52.218;9.884;2023-02-28T04:20:51;-2.40;99.90
16879;DHT22;8556;52.218;9.884;2023-02-28T04:23:17;-2.60;99.90
16879;DHT22;8556;52.218;9.884;2023-02-28T04:25:45;-2.60;99.90
16879;DHT22;8556;52.218;9.884;2023-02-28T04:28:12;-2.50;99.90
16879;DHT22;8556;52.218;9.884;2023-02-28T04:30:39;-2.40;99.90
16879;DHT22;8556;52.218;9.884;2023-02-28T04:33:06;-2.30;99.90
16879;DHT22;8556;52.218;9.884;2023-02-28T04:35:32;-2.20;99.90
16879;DHT22;8556;52.218;9.884;2023-02-28T04:37:59;-2.20;99.90
16879;DHT22;8556;52.218;9.884;2023-02-28T04:40:26;-2.40;99.90
16879;DHT22;8556;52.218;9.884;2023-02-28T04:42:54;-2.50;99.90
16879;DHT22;8556;52.218;9.884;2023-02-28T04:45:21;-2.30;99.90
16879;DHT22;8556;52.218;9.884;2023-02-28T04:47:48;-2.30;99.90
16879;DHT22;8556;52.218;9.884;2023-02-28T04:50:15;-2.10;99.90
16879;DHT22;8556;52.218;9.884;2023-02-28T04:52:42;-2.00;99.90
16879;DHT22;8556;52.218;9.884;2023-02-28T04:55:09;-1.90;99.90
16879;DHT22;8556;52.218;9.884;2023-02-28T04:57:36;-1.90;99.90
16879;DHT22;8556;52.218;9.884;2023-02-28T05:00:06;-1.90;99.90
16879;DHT22;8556;52.218;9.884;2023-02-28T05:02:37;-1.80;99.90
16879;DHT22;8556;52.218;9.884;2023-02-28T05:05:04;-1.90;99.90
16879;DHT22;8556;52.218;9.884;2023-02-28T05:07:31;-2.00;99.90
16879;DHT22;8556;52.218;9.884;2023-02-28T05:09:58;-2.00;99.90
16879;DHT22;8556;52.218;9.884;2023-02-28T05:12:25;-2.00;99.90
16879;DHT22;8556;52.218;9.884;2023-02-28T05:14:52;-1.90;99.90
16879;DHT22;8556;52.218;9.884;2023-02-28T05:17:20;-1.90;99.90
16879;DHT22;8556;52.218;9.884;2023-02-28T05:19:47;-1.80;99.90
16879;DHT22;8556;52.218;9.884;2023-02-28T05:22:14;-1.70;99.90
16879;DHT22;8556;52.218;9.884;2023-02-28T05:24:42;-1.90;99.90
16879;DHT22;8556;52.218;9.884;2023-02-28T05:27:09;-2.00;99.90
16879;DHT22;8556;52.218;9.884;2023-02-28T05:29:36;-1.90;99.90
16879;DHT22;8556;52.218;9.884;2023-02-28T05:32:08;-2.00;99.90
16879;DHT22;8556;52.218;9.884;2023-02-28T05:34:37;-2.10;99.90
16879;DHT22;8556;52.218;9.884;2023-02-28T05:37:05;-1.90;99.90
16879;DHT22;8556;52.218;9.884;2023-02-28T05:39:32;-1.90;99.90
16879;DHT22;8556;52.218;9.884;2023-02-28T05:41:59;-2.00;99.90
16879;DHT22;8556;52.218;9.884;2023-02-28T05:44:27;-2.00;99.90
16879;DHT22;8556;52.218;9.884;2023-02-28T05:46:54;-2.00;99.90
16879;DHT22;8556;52.218;9.884;2023-02-28T05:49:21;-2.30;99.90
16879;DHT22;8556;52.218;9.884;2023-02-28T05:51:49;-2.30;99.90
16879;DHT22;8556;52.218;9.884;2023-02-28T05:54:16;-2.30;99.90
16879;DHT22;8556;52.218;9.884;2023-02-28T05:56:43;-2.30;99.90
16879;DHT22;8556;52.218;9.884;2023-02-28T05:59:11;-2.20;99.90
16879;DHT22;8556;52.218;9.884;2023-02-28T06:01:41;-2.20;99.90
16879;DHT22;8556;52.218;9.884;2023-02-28T06:04:15;-2.30;99.90
16879;DHT22;8556;52.218;9.884;2023-02-28T06:06:43;-2.30;99.90
16879;DHT22;8556;52.218;9.884;2023-02-28T06:09:11;-2.40;99.90
16879;DHT22;8556;52.218;9.884;2023-02-28T06:11:38;-2.50;99.90
16879;DHT22;8556;52.218;9.884;2023-02-28T06:14:05;-2.70;99.90
16879;DHT22;8556;52.218;9.884;2023-02-28T06:16:34;-2.70;99.90
16879;DHT22;8556;52.218;9.884;2023-02-28T06:19:02;-2.50;99.90
16879;DHT22;8556;52.218;9.884;2023-02-28T06:21:30;-2.50;99.90
16879;DHT22;8556;52.218;9.884;2023-02-28T06:23:58;-2.40;99.90
16879;DHT22;8556;52.218;9.884;2023-02-28T06:26:26;-2.30;99.90
16879;DHT22;8556;52.218;9.884;2023-02-28T06:28:53;-2.20;99.90
16879;DHT22;8556;52.218;9.884;2023-02-28T06:31:20;-2.20;99.90
16879;DHT22;8556;52.218;9.884;2023-02-28T06:33:48;-2.20;99.90
16879;DHT22;8556;52.218;9.884;2023-02-28T06:36:16;-2.10;99.90
16879;DHT22;8556;52.218;9.884;2023-02-28T06:38:43;-2.10;99.90
16879;DHT22;8556;52.218;9.884;2023-02-28T06:41:10;-2.30;99.90
16879;DHT22;8556;52.218;9.884;2023-02-28T06:43:41;-2.50;99.90
16879;DHT22;8556;52.218;9.884;2023-02-28T06:46:10;-2.50;99.90
16879;DHT22;8556;52.218;9.884;2023-02-28T06:48:37;-2.60;99.90
16879;DHT22;8556;52.218;9.884;2023-02-28T06:51:05;-2.50;99.90
16879;DHT22;8556;52.218;9.884;2023-02-28T06:53:33;-2.30;99.90
16879;DHT22;8556;52.218;9.884;2023-02-28T06:56:03;-2.10;99.90
16879;DHT22;8556;52.218;9.884;2023-02-28T06:58:31;-2.00;99.90
16879;DHT22;8556;52.218;9.884;2023-02-28T07:00:59;-1.90;99.90
16879;DHT22;8556;52.218;9.884;2023-02-28T07:03:26;-1.90;99.90
16879;DHT22;8556;52.218;9.884;2023-02-28T07:05:53;-2.00;99.90
16879;DHT22;8556;52.218;9.884;2023-02-28T07:08:21;-2.00;99.90
16879;DHT22;8556;52.218;9.884;2023-02-28T07:10:51;-2.00;99.90
16879;DHT22;8556;52.218;9.884;2023-02-28T07:13:18;-1.90;99.90
16879;DHT22;8556;52.218;9.884;2023-02-28T07:15:53;-1.80;99.90
16879;DHT22;8556;52.218;9.884;2023-02-28T07:18:21;-1.80;99.90
16879;DHT22;8556;52.218;9.884;2023-02-28T07:20:48;-1.70;99.90
16879;DHT22;8556;52.218;9.884;2023-02-28T07:23:15;-1.50;99.90
16879;DHT22;8556;52.218;9.884;2023-02-28T07:25:41;-1.50;99.90
16879;DHT22;8556;52.218;9.884;2023-02-28T07:28:09;-1.40;99.90
16879;DHT22;8556;52.218;9.884;2023-02-28T07:30:36;-1.20;99.90
16879;DHT22;8556;52.218;9.884;2023-02-28T07:33:03;-0.80;99.90
16879;DHT22;8556;52.218;9.884;2023-02-28T07:35:31;-0.80;99.90
16879;DHT22;8556;52.218;9.884;2023-02-28T07:37:59;-0.60;99.90
16879;DHT22;8556;52.218;9.884;2023-02-28T07:40:26;-0.70;99.90
16879;DHT22;8556;52.218;9.884;2023-02-28T07:42:53;-0.50;99.90
16879;DHT22;8556;52.218;9.884;2023-02-28T07:45:19;0.40;99.90
16879;DHT22;8556;52.218;9.884;2023-02-28T07:47:46;0.40;99.90
16879;DHT22;8556;52.218;9.884;2023-02-28T07:50:15;1.50;99.90
16879;DHT22;8556;52.218;9.884;2023-02-28T07:52:43;1.80;99.90
16879;DHT22;8556;52.218;9.884;2023-02-28T07:55:10;0.90;99.90
16879;DHT22;8556;52.218;9.884;2023-02-28T07:57:37;0.50;99.90
16879;DHT22;8556;52.218;9.884;2023-02-28T08:00:05;0.70;99.90
16879;DHT22;8556;52.218;9.884;2023-02-28T08:02:32;1.30;99.90
16879;DHT22;8556;52.218;9.884;2023-02-28T08:05:00;1.20;99.90
16879;DHT22;8556;52.218;9.884;2023-02-28T08:07:26;1.20;99.90
16879;DHT22;8556;52.218;9.884;2023-02-28T08:09:55;1.80;99.90
16879;DHT22;8556;52.218;9.884;2023-02-28T08:12:21;2.10;99.90
16879;DHT22;8556;52.218;9.884;2023-02-28T08:14:48;1.80;99.90
16879;DHT22;8556;52.218;9.884;2023-02-28T08:17:15;1.30;99.90
16879;DHT22;8556;52.218;9.884;2023-02-28T08:19:42;2.30;99.90
16879;DHT22;8556;52.218;9.884;2023-02-28T08:22:08;2.60;99.90
16879;DHT22;8556;52.218;9.884;2023-02-28T08:24:35;3.30;99.90
16879;DHT22;8556;52.218;9.884;2023-02-28T08:27:03;3.50;99.90
16879;DHT22;8556;52.218;9.884;2023-02-28T08:29:30;3.90;99.90
16879;DHT22;8556;52.218;9.884;2023-02-28T08:31:57;2.70;99.90
16879;DHT22;8556;52.218;9.884;2023-02-28T08:34:24;2.60;99.90
16879;DHT22;8556;52.218;9.884;2023-02-28T08:36:51;3.20;99.90
16879;DHT22;8556;52.218;9.884;2023-02-28T08:39:18;3.10;99.90
16879;DHT22;8556;52.218;9.884;2023-02-28T08:41:45;4.10;99.90
16879;DHT22;8556;52.218;9.884;2023-02-28T08:44:13;3.20;99.90
16879;DHT22;8556;52.218;9.884;2023-02-28T08:46:40;3.50;99.90
16879;DHT22;8556;52.218;9.884;2023-02-28T08:49:07;2.60;99.90
16879;DHT22;8556;52.218;9.884;2023-02-28T08:51:35;2.40;99.90
16879;DHT22;8556;52.218;9.884;2023-02-28T08:54:01;3.00;99.90
16879;DHT22;8556;52.218;9.884;2023-02-28T08:56:28;2.50;99.90
16879;DHT22;8556;52.218;9.884;2023-02-28T08:58:56;2.50;99.90
16879;DHT22;8556;52.218;9.884;2023-02-28T09:01:26;2.60;99.90
16879;DHT22;8556;52.218;9.884;2023-02-28T09:03:55;2.80;99.90
16879;DHT22;8556;52.218;9.884;2023-02-28T09:06:23;2.40;99.90
16879;DHT22;8556;52.218;9.884;2023-02-28T09:08:51;2.10;99.90
16879;DHT22;8556;52.218;9.884;2023-02-28T09:11:19;2.20;99.90
16879;DHT22;8556;52.218;9.884;2023-02-28T09:13:46;2.40;99.90
16879;DHT22;8556;52.218;9.884;2023-02-28T09:16:14;2.40;99.90
16879;DHT22;8556;52.218;9.884;2023-02-28T09:18:44;2.70;99.90
16879;DHT22;8556;52.218;9.884;2023-02-28T09:21:14;2.70;99.90
16879;DHT22;8556;52.218;9.884;2023-02-28T09:23:43;2.90;99.90
16879;DHT22;8556;52.218;9.884;2023-02-28T09:26:13;3.00;99.90
16879;DHT22;8556;52.218;9.884;2023-02-28T09:28:40;3.40;99.90
16879;DHT22;8556;52.218;9.884;2023-02-28T09:31:12;3.40;99.90
16879;DHT22;8556;52.218;9.884;2023-02-28T09:33:39;3.60;99.90
16879;DHT22;8556;52.218;9.884;2023-02-28T09:36:08;3.50;99.90
16879;DHT22;8556;52.218;9.884;2023-02-28T09:38:35;3.60;99.90
16879;DHT22;8556;52.218;9.884;2023-02-28T09:41:08;3.20;99.90
16879;DHT22;8556;52.218;9.884;2023-02-28T09:43:39;3.80;99.90
16879;DHT22;8556;52.218;9.884;2023-02-28T09:46:12;3.80;99.90
16879;DHT22;8556;52.218;9.884;2023-02-28T09:48:44;3.80;99.90
16879;DHT22;8556;52.218;9.884;2023-02-28T09:51:23;3.80;99.90
16879;DHT22;8556;52.218;9.884;2023-02-28T09:53:53;3.80;99.90
16879;DHT22;8556;52.218;9.884;2023-02-28T09:56:22;3.90;99.90
16879;DHT22;8556;52.218;9.884;2023-02-28T09:58:56;3.90;99.90
16879;DHT22;8556;52.218;9.884;2023-02-28T10:01:27;4.00;99.90
16879;DHT22;8556;52.218;9.884;2023-02-28T10:04:00;4.20;99.90
16879;DHT22;8556;52.218;9.884;2023-02-28T10:06:35;4.20;99.90
16879;DHT22;8556;52.218;9.884;2023-02-28T10:09:05;4.30;99.90
16879;DHT22;8556;52.218;9.884;2023-02-28T10:11:36;4.30;99.90
16879;DHT22;8556;52.218;9.884;2023-02-28T10:14:11;4.60;99.90
16879;DHT22;8556;52.218;9.884;2023-02-28T10:16:43;4.70;99.90
16879;DHT22;8556;52.218;9.884;2023-02-28T10:19:16;4.60;99.90
16879;DHT22;8556;52.218;9.884;2023-02-28T10:21:51;4.60;99.90
16879;DHT22;8556;52.218;9.884;2023-02-28T10:24:25;4.80;99.90
16879;DHT22;8556;52.218;9.884;2023-02-28T10:26:59;4.90;99.90
16879;DHT22;8556;52.218;9.884;2023-02-28T10:29:26;4.90;99.90
16879;DHT22;8556;52.218;9.884;2023-02-28T10:31:53;4.70;99.90
16879;DHT22;8556;52.218;9.884;2023-02-28T10:34:20;4.80;99.90
16879;DHT22;8556;52.218;9.884;2023-02-28T10:36:49;5.20;99.90
16879;DHT22;8556;52.218;9.884;2023-02-28T10:39:37;5.00;99.90
16879;DHT22;8556;52.218;9.884;2023-02-28T10:42:04;5.20;99.90
16879;DHT22;8556;52.218;9.884;2023-02-28T10:44:32;4.90;99.90
16879;DHT22;8556;52.218;9.884;2023-02-28T10:46:59;5.00;99.90
16879;DHT22;8556;52.218;9.884;2023-02-28T10:49:27;5.20;99.90
16879;DHT22;8556;52.218;9.884;2023-02-28T10:51:57;5.10;99.90
16879;DHT22;8556;52.218;9.884;2023-02-28T10:54:28;5.20;99.90
16879;DHT22;8556;52.218;9.884;2023-02-28T10:57:17;5.30;99.90
16879;DHT22;8556;52.218;9.884;2023-02-28T10:59:45;5.40;99.90
16879;DHT22;8556;52.218;9.884;2023-02-28T11:02:33;5.40;99.90
16879;DHT22;8556;52.218;9.884;2023-02-28T11:05:00;5.50;99.90
16879;DHT22;8556;52.218;9.884;2023-02-28T11:07:28;5.70;99.90
16879;DHT22;8556;52.218;9.884;2023-02-28T11:09:56;5.70;99.90
16879;DHT22;8556;52.218;9.884;2023-02-28T11:12:26;5.60;99.90
16879;DHT22;8556;52.218;9.884;2023-02-28T11:14:57;5.70;99.90
16879;DHT22;8556;52.218;9.884;2023-02-28T11:17:26;5.40;99.90
16879;DHT22;8556;52.218;9.884;2023-02-28T11:19:56;5.10;99.90
16879;DHT22;8556;52.218;9.884;2023-02-28T11:22:24;4.70;99.90
16879;DHT22;8556;52.218;9.884;2023-02-28T11:24:57;4.60;99.90
16879;DHT22;8556;52.218;9.884;2023-02-28T11:27:26;4.70;99.90
16879;DHT22;8556;52.218;9.884;2023-02-28T11:30:27;4.70;99.90
16879;DHT22;8556;52.218;9.884;2023-02-28T11:32:54;4.60;99.90
16879;DHT22;8556;52.218;9.884;2023-02-28T11:35:24;4.60;99.90
16879;DHT22;8556;52.218;9.884;2023-02-28T11:37:52;4.50;99.90
16879;DHT22;8556;52.218;9.884;2023-02-28T11:40:24;4.50;99.90
16879;DHT22;8556;52.218;9.884;2023-02-28T11:43:02;5.10;99.90
16879;DHT22;8556;52.218;9.884;2023-02-28T11:45:43;5.00;99.90
16879;DHT22;8556;52.218;9.884;2023-02-28T11:48:18;5.00;99.90
16879;DHT22;8556;52.218;9.884;2023-02-28T11:50:54;4.80;99.90
16879;DHT22;8556;52.218;9.884;2023-02-28T11:53:39;5.00;99.90
16879;DHT22;8556;52.218;9.884;2023-02-28T11:56:16;5.50;99.90
16879;DHT22;8556;52.218;9.884;2023-02-28T11:58:52;5.30;99.90
16879;DHT22;8556;52.218;9.884;2023-02-28T12:01:32;4.90;99.90
16879;DHT22;8556;52.218;9.884;2023-02-28T12:04:17;4.80;99.90
16879;DHT22;8556;52.218;9.884;2023-02-28T12:06:53;4.70;99.90
16879;DHT22;8556;52.218;9.884;2023-02-28T12:09:38;4.60;99.90
16879;DHT22;8556;52.218;9.884;2023-02-28T12:12:20;4.80;99.90
16879;DHT22;8556;52.218;9.884;2023-02-28T12:18:01;4.60;99.90
16879;DHT22;8556;52.218;9.884;2023-02-28T12:20:34;4.60;99.90
16879;DHT22;8556;52.218;9.884;2023-02-28T12:23:31;4.40;99.90
16879;DHT22;8556;52.218;9.884;2023-02-28T12:26:15;4.30;99.90
16879;DHT22;8556;52.218;9.884;2023-02-28T12:28:50;4.30;99.90
16879;DHT22;8556;52.218;9.884;2023-02-28T12:31:20;4.20;99.90
16879;DHT22;8556;52.218;9.884;2023-02-28T12:33:51;4.20;99.90
16879;DHT22;8556;52.218;9.884;2023-02-28T12:36:20;4.20;99.90
16879;DHT22;8556;52.218;9.884;2023-02-28T12:38:52;4.10;99.90
16879;DHT22;8556;52.218;9.884;2023-02-28T12:41:26;4.20;99.90
16879;DHT22;8556;52.218;9.884;2023-02-28T12:44:01;4.50;99.90
16879;DHT22;8556;52.218;9.884;2023-02-28T12:46:33;4.20;99.90
16879;DHT22;8556;52.218;9.884;2023-02-28T12:49:04;4.10;99.90
16879;DHT22;8556;52.218;9.884;2023-02-28T12:51:32;4.10;99.90
16879;DHT22;8556;52.218;9.884;2023-02-28T12:54:10;4.10;99.90
16879;DHT22;8556;52.218;9.884;2023-02-28T12:56:44;4.20;99.90
16879;DHT22;8556;52.218;9.884;2023-02-28T12:59:19;4.10;99.90
16879;DHT22;8556;52.218;9.884;2023-02-28T13:02:00;4.10;99.90
16879;DHT22;8556;52.218;9.884;2023-02-28T13:04:57;4.00;99.90
16879;DHT22;8556;52.218;9.884;2023-02-28T13:07:40;3.90;99.90
16879;DHT22;8556;52.218;9.884;2023-02-28T13:10:15;3.90;99.90
16879;DHT22;8556;52.218;9.884;2023-02-28T13:12:48;3.90;99.90
16879;DHT22;8556;52.218;9.884;2023-02-28T13:15:19;3.80;99.90
16879;DHT22;8556;52.218;9.884;2023-02-28T13:17:51;3.80;99.90
16879;DHT22;8556;52.218;9.884;2023-02-28T13:20:20;4.30;99.90
16879;DHT22;8556;52.218;9.884;2023-02-28T13:22:49;4.80;99.90
16879;DHT22;8556;52.218;9.884;2023-02-28T13:34:37;5.40;96.10
16879;DHT22;8556;52.218;9.884;2023-02-28T13:40:28;5.50;60.80
16879;DHT22;8556;52.218;9.884;2023-02-28T13:42:55;5.30;1.00
16879;DHT22;8556;52.218;9.884;2023-02-28T13:45:27;5.30;1.00
16879;DHT22;8556;52.218;9.884;2023-02-28T13:47:59;5.30;1.00
16879;DHT22;8556;52.218;9.884;2023-02-28T13:50:34;5.40;1.00
16879;DHT22;8556;52.218;9.884;2023-02-28T13:56:22;5.30;1.00
16879;DHT22;8556;52.218;9.884;2023-02-28T13:58:55;5.40;1.00
16879;DHT22;8556;52.218;9.884;2023-02-28T14:01:48;5.40;1.00
16879;DHT22;8556;52.218;9.884;2023-02-28T14:07:33;5.40;1.00
16879;DHT22;8556;52.218;9.884;2023-02-28T14:10:06;5.30;1.00
16879;DHT22;8556;52.218;9.884;2023-02-28T14:12:57;5.40;1.00
16879;DHT22;8556;52.218;9.884;2023-02-28T14:15:40;5.50;1.00
16879;DHT22;8556;52.218;9.884;2023-02-28T14:18:20;5.70;1.00
16879;DHT22;8556;52.218;9.884;2023-02-28T14:20:49;5.40;1.00
16879;DHT22;8556;52.218;9.884;2023-02-28T14:23:32;5.40;1.00
16879;DHT22;8556;52.218;9.884;2023-02-28T14:26:05;5.20;1.00
16879;DHT22;8556;52.218;9.884;2023-02-28T14:28:44;5.20;1.00
16879;DHT22;8556;52.218;9.884;2023-02-28T14:31:18;5.40;1.00
16879;DHT22;8556;52.218;9.884;2023-02-28T14:34:12;5.40;1.00
16879;DHT22;8556;52.218;9.884;2023-02-28T14:36:43;5.50;1.00
16879;DHT22;8556;52.218;9.884;2023-02-28T14:39:14;5.30;1.00
16879;DHT22;8556;52.218;9.884;2023-02-28T14:41:43;5.30;1.00
16879;DHT22;8556;52.218;9.884;2023-02-28T14:44:16;5.30;1.00
16879;DHT22;8556;52.218;9.884;2023-02-28T14:46:44;5.20;1.00
16879;DHT22;8556;52.218;9.884;2023-02-28T14:49:17;5.40;1.00
16879;DHT22;8556;52.218;9.884;2023-02-28T14:51:44;5.30;1.00
16879;DHT22;8556;52.218;9.884;2023-02-28T14:54:16;5.20;1.00
16879;DHT22;8556;52.218;9.884;2023-02-28T14:56:44;5.10;99.90
16879;DHT22;8556;52.218;9.884;2023-02-28T14:59:25;5.00;99.90
16879;DHT22;8556;52.218;9.884;2023-02-28T15:01:52;5.10;99.90
16879;DHT22;8556;52.218;9.884;2023-02-28T15:04:33;5.10;99.90
16879;DHT22;8556;52.218;9.884;2023-02-28T15:07:10;5.10;99.90
16879;DHT22;8556;52.218;9.884;2023-02-28T15:09:38;5.10;99.90
16879;DHT22;8556;52.218;9.884;2023-02-28T15:12:05;5.10;99.90
16879;DHT22;8556;52.218;9.884;2023-02-28T15:14:32;5.40;99.90
16879;DHT22;8556;52.218;9.884;2023-02-28T15:17:05;5.20;99.90
16879;DHT22;8556;52.218;9.884;2023-02-28T15:19:35;5.00;99.90
16879;DHT22;8556;52.218;9.884;2023-02-28T15:22:05;5.10;99.90
16879;DHT22;8556;52.218;9.884;2023-02-28T15:24:39;4.90;99.90
16879;DHT22;8556;52.218;9.884;2023-02-28T15:27:11;5.00;99.90
16879;DHT22;8556;52.218;9.884;2023-02-28T15:29:45;4.90;99.90
16879;DHT22;8556;52.218;9.884;2023-02-28T15:32:24;4.80;99.90
16879;DHT22;8556;52.218;9.884;2023-02-28T15:34:52;4.80;99.90
16879;DHT22;8556;52.218;9.884;2023-02-28T15:37:33;4.70;99.90
16879;DHT22;8556;52.218;9.884;2023-02-28T15:40:14;4.80;99.90
16879;DHT22;8556;52.218;9.884;2023-02-28T15:42:42;4.70;99.90
16879;DHT22;8556;52.218;9.884;2023-02-28T15:45:28;4.80;99.90
16879;DHT22;8556;52.218;9.884;2023-02-28T15:48:00;4.70;99.90
16879;DHT22;8556;52.218;9.884;2023-02-28T15:50:28;4.60;99.90
16879;DHT22;8556;52.218;9.884;2023-02-28T15:52:56;4.60;99.90
16879;DHT22;8556;52.218;9.884;2023-02-28T15:55:28;4.60;99.90
16879;DHT22;8556;52.218;9.884;2023-02-28T15:57:57;4.60;99.90
16879;DHT22;8556;52.218;9.884;2023-02-28T16:00:27;4.40;99.90
16879;DHT22;8556;52.218;9.884;2023-02-28T16:02:54;4.50;84.20
16879;DHT22;8556;52.218;9.884;2023-02-28T16:05:24;4.40;99.90
16879;DHT22;8556;52.218;9.884;2023-02-28T16:07:57;4.40;99.90
16879;DHT22;8556;52.218;9.884;2023-02-28T16:10:28;4.30;99.90
16879;DHT22;8556;52.218;9.884;2023-02-28T16:12:56;4.30;99.90
16879;DHT22;8556;52.218;9.884;2023-02-28T16:15:26;4.20;99.90
16879;DHT22;8556;52.218;9.884;2023-02-28T16:17:55;4.20;1.00
16879;DHT22;8556;52.218;9.884;2023-02-28T16:20:24;4.20;84.70
16879;DHT22;8556;52.218;9.884;2023-02-28T16:22:51;4.10;1.00
16879;DHT22;8556;52.218;9.884;2023-02-28T16:25:20;4.00;1.00
16879;DHT22;8556;52.218;9.884;2023-02-28T16:27:50;3.90;1.00
16879;DHT22;8556;52.218;9.884;2023-02-28T16:30:20;3.80;1.00
16879;DHT22;8556;52.218;9.884;2023-02-28T16:32:48;3.40;1.00
16879;DHT22;8556;52.218;9.884;2023-02-28T16:35:15;3.30;1.00
16879;DHT22;8556;52.218;9.884;2023-02-28T16:37:43;3.20;1.00
16879;DHT22;8556;52.218;9.884;2023-02-28T16:40:14;3.10;61.10
16879;DHT22;8556;52.218;9.884;2023-02-28T16:42:42;3.00;99.90
16879;DHT22;8556;52.218;9.884;2023-02-28T16:45:18;2.90;99.90
16879;DHT22;8556;52.218;9.884;2023-02-28T16:47:47;2.80;99.90
16879;DHT22;8556;52.218;9.884;2023-02-28T16:50:16;2.70;99.90